createdAt,value
2017-11-24T00:00:26.936Z,0.00
2017-11-24T00:01:26.878Z,0.00
2017-11-24T00:02:26.921Z,0.00
2017-11-24T00:03:26.790Z,0.00
2017-11-24T00:04:26.790Z,0.00
2017-11-24T00:05:26.822Z,0.00
2017-11-24T00:06:26.831Z,0.00
2017-11-24T00:07:26.736Z,0.00
2017-11-24T00:08:26.807Z,0.00
2017-11-24T00:09:26.742Z,0.00
2017-11-24T00:10:26.746Z,0.00
2017-11-24T00:11:26.740Z,0.00
2017-11-24T00:12:26.752Z,0.00
2017-11-24T00:13:26.700Z,0.00
2017-11-24T00:14:26.652Z,0.00
2017-11-24T00:15:26.681Z,0.00
2017-11-24T00:16:26.652Z,0.00
2017-11-24T00:17:26.573Z,0.00
2017-11-24T00:18:26.592Z,0.00
2017-11-24T00:19:26.584Z,0.00
2017-11-24T00:20:26.553Z,0.00
2017-11-24T00:21:26.520Z,0.00
2017-11-24T00:22:26.558Z,0.00
2017-11-24T00:23:26.482Z,0.00
2017-11-24T00:24:26.546Z,0.00
2017-11-24T00:25:26.525Z,0.00
2017-11-24T00:26:26.396Z,0.00
2017-11-24T00:27:26.419Z,0.00
2017-11-24T00:28:26.400Z,0.00
2017-11-24T00:29:26.379Z,0.00
2017-11-24T00:30:26.333Z,0.00
2017-11-24T00:31:27.312Z,0.00
2017-11-24T00:32:26.377Z,0.00
2017-11-24T00:33:26.261Z,0.00
2017-11-24T00:34:26.244Z,0.00
2017-11-24T00:35:26.227Z,0.00
2017-11-24T00:36:26.794Z,0.00
2017-11-24T00:37:26.225Z,0.00
2017-11-24T00:38:26.166Z,0.00
2017-11-24T00:39:26.195Z,0.00
2017-11-24T00:40:26.119Z,0.00
2017-11-24T00:41:26.117Z,0.00
2017-11-24T00:42:26.089Z,0.00
2017-11-24T00:43:26.042Z,0.00
2017-11-24T00:44:26.173Z,0.00
2017-11-24T00:45:26.006Z,0.00
2017-11-24T00:46:26.052Z,0.00
2017-11-24T00:47:25.941Z,0.00
2017-11-24T00:48:25.966Z,0.00
2017-11-24T00:49:25.975Z,0.00
2017-11-24T00:50:25.887Z,0.00
2017-11-24T00:51:28.797Z,0.00
2017-11-24T00:52:25.891Z,0.00
2017-11-24T00:53:25.871Z,0.00
2017-11-24T00:54:25.799Z,0.00
2017-11-24T00:55:26.633Z,0.00
2017-11-24T00:56:25.921Z,0.00
2017-11-24T00:57:25.763Z,0.00
2017-11-24T00:58:25.824Z,0.00
2017-11-24T00:59:25.732Z,0.00
2017-11-24T01:00:25.724Z,0.00
2017-11-24T01:01:25.734Z,0.00
2017-11-24T01:02:25.709Z,0.00
2017-11-24T01:03:25.623Z,0.00
2017-11-24T01:04:25.623Z,0.00
2017-11-24T01:05:25.579Z,0.00
2017-11-24T01:06:25.553Z,0.00
2017-11-24T01:07:25.571Z,0.00
2017-11-24T01:08:25.545Z,0.00
2017-11-24T01:09:25.509Z,0.00
2017-11-24T01:10:25.497Z,0.00
2017-11-24T01:11:25.502Z,0.00
2017-11-24T01:12:25.429Z,0.00
2017-11-24T01:13:25.474Z,0.00
2017-11-24T01:14:25.429Z,0.00
2017-11-24T01:15:25.404Z,0.00
2017-11-24T01:16:25.374Z,0.00
2017-11-24T01:17:25.363Z,0.00
2017-11-24T01:18:25.358Z,0.00
2017-11-24T01:19:25.343Z,0.00
2017-11-24T01:20:25.380Z,0.00
2017-11-24T01:21:25.286Z,0.00
2017-11-24T01:22:25.269Z,0.00
2017-11-24T01:23:25.222Z,0.00
2017-11-24T01:24:25.228Z,0.00
2017-11-24T01:25:25.112Z,0.00
2017-11-24T01:26:25.142Z,0.00
2017-11-24T01:27:25.306Z,0.00
2017-11-24T01:28:25.106Z,0.00
2017-11-24T01:29:25.105Z,0.00
2017-11-24T01:30:25.103Z,0.00
2017-11-24T01:31:25.075Z,0.00
2017-11-24T01:32:25.118Z,0.00
2017-11-24T01:33:24.960Z,0.00
2017-11-24T01:34:25.002Z,0.00
2017-11-24T01:35:24.972Z,0.00
2017-11-24T01:36:24.987Z,0.00
2017-11-24T01:37:25.060Z,0.00
2017-11-24T01:38:24.959Z,0.00
2017-11-24T01:39:25.662Z,0.00
2017-11-24T01:40:24.957Z,0.00
2017-11-24T01:41:24.975Z,0.00
2017-11-24T01:42:24.859Z,0.00
2017-11-24T01:43:24.815Z,0.00
2017-11-24T01:44:24.822Z,0.00
2017-11-24T01:45:24.808Z,0.00
2017-11-24T01:46:24.743Z,0.00
2017-11-24T01:47:24.797Z,0.00
2017-11-24T01:48:24.826Z,0.00
2017-11-24T01:49:24.716Z,0.00
2017-11-24T01:50:24.722Z,0.00
2017-11-24T01:51:24.693Z,0.00
2017-11-24T01:52:24.656Z,0.00
2017-11-24T01:53:24.686Z,0.00
2017-11-24T01:54:24.617Z,0.00
2017-11-24T01:55:24.573Z,0.00
2017-11-24T01:56:24.572Z,0.00
2017-11-24T01:57:24.588Z,0.00
2017-11-24T01:58:24.525Z,0.00
2017-11-24T01:59:28.404Z,0.00
2017-11-24T02:00:24.451Z,0.00
2017-11-24T02:01:24.496Z,0.00
2017-11-24T02:02:24.504Z,0.00
2017-11-24T02:03:24.431Z,0.00
2017-11-24T02:04:24.476Z,0.00
2017-11-24T02:05:24.440Z,0.00
2017-11-24T02:06:24.439Z,0.00
2017-11-24T02:07:24.340Z,0.00
2017-11-24T02:08:24.303Z,0.00
2017-11-24T02:09:24.334Z,0.00
2017-11-24T02:10:24.314Z,0.00
2017-11-24T02:11:24.238Z,0.00
2017-11-24T02:12:24.220Z,0.00
2017-11-24T02:13:24.290Z,0.00
2017-11-24T02:14:24.187Z,0.00
2017-11-24T02:15:24.173Z,0.00
2017-11-24T02:16:24.163Z,0.00
2017-11-24T02:17:24.222Z,0.00
2017-11-24T02:18:24.108Z,0.00
2017-11-24T02:19:24.127Z,0.00
2017-11-24T02:20:24.087Z,0.00
2017-11-24T02:21:24.062Z,0.00
2017-11-24T02:22:24.030Z,0.00
2017-11-24T02:23:24.019Z,0.00
2017-11-24T02:24:23.957Z,0.00
2017-11-24T02:25:23.965Z,0.00
2017-11-24T02:26:23.888Z,0.00
2017-11-24T02:27:23.876Z,0.00
2017-11-24T02:28:23.838Z,0.00
2017-11-24T02:29:23.860Z,0.00
2017-11-24T02:30:23.831Z,0.00
2017-11-24T02:31:23.855Z,0.00
2017-11-24T02:32:23.781Z,0.00
2017-11-24T02:33:23.769Z,0.00
2017-11-24T02:34:23.768Z,0.00
2017-11-24T02:35:23.720Z,0.00
2017-11-24T02:36:23.792Z,0.00
2017-11-24T02:37:23.668Z,0.00
2017-11-24T02:38:23.683Z,0.00
2017-11-24T02:39:23.770Z,0.00
2017-11-24T02:40:23.643Z,0.00
2017-11-24T02:41:23.667Z,0.00
2017-11-24T02:42:23.575Z,0.00
2017-11-24T02:43:23.640Z,0.00
2017-11-24T02:44:23.631Z,0.00
2017-11-24T02:45:23.574Z,0.00
2017-11-24T02:46:23.607Z,0.00
2017-11-24T02:47:23.464Z,0.00
2017-11-24T02:48:23.518Z,0.00
2017-11-24T02:49:23.477Z,0.00
2017-11-24T02:50:23.452Z,0.00
2017-11-24T02:51:23.437Z,0.00
2017-11-24T02:52:23.395Z,0.00
2017-11-24T02:53:23.357Z,0.00
2017-11-24T02:54:23.371Z,0.00
2017-11-24T02:55:23.403Z,0.00
2017-11-24T02:56:23.365Z,0.00
2017-11-24T02:57:23.322Z,0.00
2017-11-24T02:58:23.333Z,0.00
2017-11-24T02:59:23.252Z,0.00
2017-11-24T03:00:23.225Z,0.00
2017-11-24T03:01:23.255Z,0.00
2017-11-24T03:02:23.329Z,0.00
2017-11-24T03:03:23.233Z,0.00
2017-11-24T03:04:23.247Z,0.00
2017-11-24T03:05:23.186Z,0.00
2017-11-24T03:06:23.169Z,0.00
2017-11-24T03:07:23.162Z,0.00
2017-11-24T03:08:23.174Z,0.00
2017-11-24T03:09:23.079Z,0.00
2017-11-24T03:10:23.007Z,0.00
2017-11-24T03:11:23.094Z,0.00
2017-11-24T03:12:23.029Z,0.00
2017-11-24T03:13:23.030Z,0.00
2017-11-24T03:14:22.973Z,0.00
2017-11-24T03:15:23.011Z,0.00
2017-11-24T03:16:22.935Z,0.00
2017-11-24T03:17:22.973Z,0.00
2017-11-24T03:18:22.913Z,0.00
2017-11-24T03:19:22.896Z,0.00
2017-11-24T03:20:22.854Z,0.00
2017-11-24T03:21:22.892Z,0.00
2017-11-24T03:22:22.792Z,0.00
2017-11-24T03:23:22.868Z,0.00
2017-11-24T03:24:22.827Z,0.00
2017-11-24T03:25:22.780Z,0.00
2017-11-24T03:26:22.740Z,0.00
2017-11-24T03:27:22.680Z,0.00
2017-11-24T03:28:22.786Z,0.00
2017-11-24T03:29:22.670Z,0.00
2017-11-24T03:30:22.688Z,0.00
2017-11-24T03:31:22.622Z,0.00
2017-11-24T03:32:22.657Z,0.00
2017-11-24T03:33:22.598Z,0.00
2017-11-24T03:34:22.604Z,0.00
2017-11-24T03:35:22.556Z,0.00
2017-11-24T03:36:22.574Z,0.00
2017-11-24T03:37:22.487Z,0.00
2017-11-24T03:38:22.480Z,0.00
2017-11-24T03:39:22.495Z,0.00
2017-11-24T03:40:22.533Z,0.00
2017-11-24T03:41:22.460Z,0.00
2017-11-24T03:42:22.439Z,0.00
2017-11-24T03:43:22.459Z,0.00
2017-11-24T03:44:22.394Z,0.00
2017-11-24T03:45:23.183Z,0.00
2017-11-24T03:46:22.935Z,0.00
2017-11-24T03:47:22.285Z,0.00
2017-11-24T03:48:22.257Z,0.00
2017-11-24T03:49:22.328Z,0.00
2017-11-24T03:50:22.143Z,0.00
2017-11-24T03:51:22.222Z,0.00
2017-11-24T03:52:22.186Z,0.00
2017-11-24T03:53:22.077Z,0.00
2017-11-24T03:54:22.044Z,0.00
2017-11-24T03:55:22.084Z,0.00
2017-11-24T03:56:22.083Z,0.00
2017-11-24T03:57:22.111Z,0.00
2017-11-24T03:58:22.001Z,0.00
2017-11-24T03:59:22.020Z,0.00
2017-11-24T04:00:22.013Z,0.00
2017-11-24T04:01:21.970Z,0.00
2017-11-24T04:02:22.012Z,0.00
2017-11-24T04:03:21.984Z,0.00
2017-11-24T04:04:21.934Z,0.00
2017-11-24T04:05:21.873Z,0.00
2017-11-24T04:06:21.892Z,0.00
2017-11-24T04:07:21.825Z,0.00
2017-11-24T04:08:21.844Z,0.00
2017-11-24T04:09:21.764Z,0.00
2017-11-24T04:10:21.846Z,0.00
2017-11-24T04:11:21.773Z,0.00
2017-11-24T04:12:21.773Z,0.00
2017-11-24T04:13:21.718Z,0.00
2017-11-24T04:14:21.687Z,0.00
2017-11-24T04:15:21.626Z,0.00
2017-11-24T04:16:21.625Z,0.00
2017-11-24T04:17:21.629Z,0.00
2017-11-24T04:18:21.611Z,0.00
2017-11-24T04:19:21.623Z,0.00
2017-11-24T04:20:21.572Z,0.00
2017-11-24T04:21:21.613Z,0.00
2017-11-24T04:22:21.641Z,0.00
2017-11-24T04:23:21.556Z,0.00
2017-11-24T04:24:21.515Z,0.00
2017-11-24T04:25:21.728Z,0.00
2017-11-24T04:26:21.451Z,0.00
2017-11-24T04:27:21.451Z,0.00
2017-11-24T04:28:21.478Z,0.00
2017-11-24T04:29:25.191Z,0.00
2017-11-24T04:30:21.497Z,0.00
2017-11-24T04:31:21.487Z,0.00
2017-11-24T04:32:21.513Z,0.00
2017-11-24T04:33:21.608Z,0.00
2017-11-24T04:34:22.160Z,0.00
2017-11-24T04:35:21.368Z,0.00
2017-11-24T04:36:21.348Z,0.00
2017-11-24T04:37:21.271Z,0.00
2017-11-24T04:38:21.310Z,0.00
2017-11-24T04:39:21.337Z,0.00
2017-11-24T04:40:21.441Z,0.00
2017-11-24T04:41:21.920Z,0.00
2017-11-24T04:42:21.409Z,0.00
2017-11-24T04:43:21.380Z,0.00
2017-11-24T04:44:21.173Z,0.00
2017-11-24T04:45:21.209Z,0.00
2017-11-24T04:46:21.300Z,0.00
2017-11-24T04:47:21.305Z,0.00
2017-11-24T04:48:21.189Z,0.00
2017-11-24T04:49:21.317Z,0.00
2017-11-24T04:50:21.076Z,0.00
2017-11-24T04:51:21.135Z,0.00
2017-11-24T04:52:21.022Z,0.00
2017-11-24T04:53:20.914Z,0.00
2017-11-24T04:54:20.925Z,0.00
2017-11-24T04:55:20.886Z,0.00
2017-11-24T04:56:20.854Z,0.00
2017-11-24T04:57:20.905Z,0.00
2017-11-24T04:58:21.955Z,0.00
2017-11-24T04:59:27.367Z,0.00
2017-11-24T05:00:20.715Z,0.00
2017-11-24T05:01:21.280Z,0.00
2017-11-24T05:02:21.210Z,0.00
2017-11-24T05:03:20.795Z,0.00
2017-11-24T05:04:20.725Z,0.00
2017-11-24T05:05:20.735Z,0.00
2017-11-24T05:06:20.756Z,0.00
2017-11-24T05:07:20.591Z,0.00
2017-11-24T05:08:20.778Z,0.00
2017-11-24T05:09:21.246Z,0.00
2017-11-24T05:10:20.612Z,0.00
2017-11-24T05:11:20.509Z,0.00
2017-11-24T05:12:20.603Z,0.00
2017-11-24T05:13:20.434Z,0.00
2017-11-24T05:14:20.559Z,0.00
2017-11-24T05:15:20.457Z,0.00
2017-11-24T05:16:20.577Z,0.00
2017-11-24T05:17:20.467Z,0.00
2017-11-24T05:18:20.463Z,0.00
2017-11-24T05:19:20.475Z,0.00
2017-11-24T05:20:20.438Z,0.00
2017-11-24T05:21:24.896Z,0.00
2017-11-24T05:22:20.249Z,0.00
2017-11-24T05:23:20.289Z,0.00
2017-11-24T05:24:20.248Z,0.00
2017-11-24T05:25:20.223Z,0.00
2017-11-24T05:26:20.241Z,0.00
2017-11-24T05:27:20.216Z,0.00
2017-11-24T05:28:20.153Z,0.00
2017-11-24T05:29:20.187Z,0.00
2017-11-24T05:30:20.176Z,0.00
2017-11-24T05:31:20.141Z,0.00
2017-11-24T05:32:20.060Z,0.00
2017-11-24T05:33:20.162Z,0.00
2017-11-24T05:34:20.085Z,0.00
2017-11-24T05:35:20.048Z,0.00
2017-11-24T05:36:20.132Z,0.00
2017-11-24T05:37:19.952Z,0.00
2017-11-24T05:38:19.939Z,0.00
2017-11-24T05:39:19.914Z,0.00
2017-11-24T05:40:19.909Z,0.00
2017-11-24T05:41:20.864Z,0.00
2017-11-24T05:42:19.880Z,0.00
2017-11-24T05:43:19.863Z,0.00
2017-11-24T05:44:19.832Z,0.00
2017-11-24T05:45:19.986Z,0.00
2017-11-24T05:46:20.713Z,0.00
2017-11-24T05:47:19.974Z,0.00
2017-11-24T05:48:19.749Z,0.00
2017-11-24T05:49:19.994Z,0.00
2017-11-24T05:50:19.796Z,0.00
2017-11-24T05:51:19.735Z,0.00
2017-11-24T05:52:19.760Z,0.00
2017-11-24T05:53:19.736Z,0.00
2017-11-24T05:54:20.043Z,0.00
2017-11-24T05:55:19.624Z,0.00
2017-11-24T05:56:19.555Z,0.00
2017-11-24T05:57:19.629Z,0.00
2017-11-24T05:58:19.557Z,0.00
2017-11-24T05:59:19.552Z,0.00
2017-11-24T06:00:19.466Z,0.00
2017-11-24T06:01:19.484Z,0.00
2017-11-24T06:02:19.454Z,0.00
2017-11-24T06:03:19.429Z,0.00
2017-11-24T06:04:19.371Z,0.00
2017-11-24T06:05:19.423Z,0.00
2017-11-24T06:06:19.494Z,0.00
2017-11-24T06:07:19.396Z,0.00
2017-11-24T06:08:19.417Z,0.00
2017-11-24T06:09:19.340Z,0.00
2017-11-24T06:10:19.289Z,0.00
2017-11-24T06:11:19.240Z,0.00
2017-11-24T06:12:19.340Z,0.00
2017-11-24T06:13:19.245Z,0.00
2017-11-24T06:14:19.308Z,0.00
2017-11-24T06:15:19.176Z,0.00
2017-11-24T06:16:19.183Z,0.00
2017-11-24T06:17:19.120Z,0.00
2017-11-24T06:18:19.084Z,0.00
2017-11-24T06:19:19.166Z,0.00
2017-11-24T06:20:19.093Z,0.00
2017-11-24T06:21:19.067Z,0.00
2017-11-24T06:22:19.058Z,0.00
2017-11-24T06:23:19.025Z,0.00
2017-11-24T06:24:19.069Z,0.00
2017-11-24T06:25:18.983Z,0.00
2017-11-24T06:26:19.019Z,0.00
2017-11-24T06:27:19.032Z,0.00
2017-11-24T06:28:18.922Z,0.00
2017-11-24T06:29:18.942Z,0.00
2017-11-24T06:30:18.864Z,0.00
2017-11-24T06:31:18.864Z,0.00
2017-11-24T06:32:18.869Z,0.00
2017-11-24T06:33:18.869Z,0.00
2017-11-24T06:34:18.813Z,0.00
2017-11-24T06:35:18.824Z,0.00
2017-11-24T06:36:18.773Z,0.00
2017-11-24T06:37:18.739Z,0.00
2017-11-24T06:38:18.746Z,0.00
2017-11-24T06:39:18.693Z,0.00
2017-11-24T06:40:18.678Z,0.00
2017-11-24T06:41:18.638Z,0.00
2017-11-24T06:42:18.702Z,0.00
2017-11-24T06:43:18.628Z,0.00
2017-11-24T06:44:18.683Z,0.00
2017-11-24T06:45:18.630Z,0.00
2017-11-24T06:46:18.539Z,0.00
2017-11-24T06:47:18.603Z,0.00
2017-11-24T06:48:19.223Z,0.00
2017-11-24T06:49:18.546Z,0.00
2017-11-24T06:50:18.494Z,0.00
2017-11-24T06:51:18.472Z,0.00
2017-11-24T06:52:18.436Z,0.00
2017-11-24T06:53:18.474Z,0.00
2017-11-24T06:54:18.382Z,5.63
2017-11-24T06:55:18.406Z,5.63
2017-11-24T06:56:18.382Z,5.63
2017-11-24T06:57:18.323Z,5.63
2017-11-24T06:58:18.309Z,5.63
2017-11-24T06:59:18.300Z,5.63
2017-11-24T07:00:18.308Z,5.63
2017-11-24T07:01:18.261Z,5.63
2017-11-24T07:02:18.256Z,0.00
2017-11-24T07:03:21.045Z,0.00
2017-11-24T07:04:20.809Z,0.00
2017-11-24T07:05:20.819Z,5.63
2017-11-24T07:06:18.173Z,5.63
2017-11-24T07:07:18.118Z,5.63
2017-11-24T07:08:18.168Z,5.63
2017-11-24T07:09:18.073Z,5.63
2017-11-24T07:10:18.106Z,5.63
2017-11-24T07:11:18.115Z,5.63
2017-11-24T07:12:19.899Z,5.63
2017-11-24T07:13:18.197Z,11.25
2017-11-24T07:14:17.992Z,11.25
2017-11-24T07:15:20.894Z,11.25
2017-11-24T07:16:18.015Z,11.25
2017-11-24T07:17:17.952Z,11.25
2017-11-24T07:18:17.940Z,11.25
2017-11-24T07:19:22.835Z,11.25
2017-11-24T07:20:17.877Z,11.25
2017-11-24T07:21:17.885Z,11.25
2017-11-24T07:22:17.853Z,16.88
2017-11-24T07:23:17.870Z,16.88
2017-11-24T07:24:17.858Z,16.88
2017-11-24T07:25:17.790Z,22.50
2017-11-24T07:26:20.320Z,22.50
2017-11-24T07:27:21.428Z,22.50
2017-11-24T07:28:17.724Z,22.50
2017-11-24T07:29:17.776Z,22.50
2017-11-24T07:30:17.720Z,22.50
2017-11-24T07:31:21.326Z,22.50
2017-11-24T07:32:17.679Z,28.13
2017-11-24T07:33:17.593Z,33.75
2017-11-24T07:34:17.591Z,33.75
2017-11-24T07:35:17.601Z,33.75
2017-11-24T07:36:17.651Z,28.13
2017-11-24T07:37:17.538Z,28.13
2017-11-24T07:38:17.583Z,28.13
2017-11-24T07:39:17.540Z,28.13
2017-11-24T07:40:17.542Z,28.13
2017-11-24T07:41:17.491Z,33.75
2017-11-24T07:42:17.485Z,33.75
2017-11-24T07:43:17.518Z,28.13
2017-11-24T07:44:21.411Z,28.13
2017-11-24T07:45:19.361Z,22.50
2017-11-24T07:46:21.918Z,22.50
2017-11-24T07:47:17.360Z,22.50
2017-11-24T07:48:17.412Z,22.50
2017-11-24T07:49:17.349Z,22.50
2017-11-24T07:50:17.353Z,22.50
2017-11-24T07:51:17.329Z,22.50
2017-11-24T07:52:17.296Z,28.13
2017-11-24T07:53:17.244Z,33.75
2017-11-24T07:54:17.187Z,45.00
2017-11-24T07:55:17.271Z,50.63
2017-11-24T07:56:17.171Z,39.38
2017-11-24T07:57:17.176Z,16.88
2017-11-24T07:58:17.191Z,16.88
2017-11-24T07:59:17.232Z,22.50
2017-11-24T08:00:19.830Z,16.88
2017-11-24T08:01:17.050Z,16.88
2017-11-24T08:02:20.902Z,28.13
2017-11-24T08:03:17.042Z,33.75
2017-11-24T08:04:16.937Z,39.38
2017-11-24T08:05:17.016Z,39.38
2017-11-24T08:06:19.931Z,50.63
2017-11-24T08:07:19.997Z,61.88
2017-11-24T08:08:16.911Z,73.13
2017-11-24T08:09:16.868Z,78.75
2017-11-24T08:10:16.876Z,106.88
2017-11-24T08:11:16.894Z,112.50
2017-11-24T08:12:16.828Z,123.75
2017-11-24T08:13:16.793Z,140.63
2017-11-24T08:14:16.751Z,151.88
2017-11-24T08:15:16.755Z,146.25
2017-11-24T08:16:16.782Z,135.00
2017-11-24T08:17:16.770Z,112.50
2017-11-24T08:18:16.878Z,95.63
2017-11-24T08:19:16.885Z,73.13
2017-11-24T08:20:16.813Z,67.50
2017-11-24T08:21:16.776Z,45.00
2017-11-24T08:22:16.682Z,45.00
2017-11-24T08:23:16.638Z,50.63
2017-11-24T08:24:16.640Z,56.25
2017-11-24T08:25:16.624Z,61.88
2017-11-24T08:26:20.322Z,67.50
2017-11-24T08:27:16.641Z,73.13
2017-11-24T08:28:16.525Z,78.75
2017-11-24T08:29:16.572Z,106.88
2017-11-24T08:30:16.534Z,112.50
2017-11-24T08:31:16.459Z,101.25
2017-11-24T08:32:16.484Z,95.63
2017-11-24T08:33:18.447Z,84.38
2017-11-24T08:34:16.361Z,61.88
2017-11-24T08:35:16.413Z,56.25
2017-11-24T08:36:19.897Z,50.63
2017-11-24T08:37:16.315Z,56.25
2017-11-24T08:38:16.360Z,56.25
2017-11-24T08:39:16.337Z,61.88
2017-11-24T08:40:16.290Z,61.88
2017-11-24T08:41:16.339Z,56.25
2017-11-24T08:42:18.820Z,56.25
2017-11-24T08:43:16.230Z,45.00
2017-11-24T08:44:16.157Z,50.63
2017-11-24T08:45:16.239Z,45.00
2017-11-24T08:46:16.140Z,39.38
2017-11-24T08:47:16.133Z,39.38
2017-11-24T08:48:16.085Z,39.38
2017-11-24T08:49:16.097Z,50.63
2017-11-24T08:50:16.010Z,56.25
2017-11-24T08:51:16.003Z,61.88
2017-11-24T08:52:16.060Z,61.88
2017-11-24T08:53:19.849Z,56.25
2017-11-24T08:54:15.989Z,50.63
2017-11-24T08:55:17.994Z,50.63
2017-11-24T08:56:18.931Z,56.25
2017-11-24T08:57:15.984Z,56.25
2017-11-24T08:58:15.944Z,56.25
2017-11-24T08:59:17.951Z,56.25
2017-11-24T09:00:15.822Z,61.88
2017-11-24T09:01:15.883Z,61.88
2017-11-24T09:02:15.939Z,61.88
2017-11-24T09:03:15.783Z,61.88
2017-11-24T09:04:18.453Z,56.25
2017-11-24T09:05:18.437Z,50.63
2017-11-24T09:06:15.834Z,50.63
2017-11-24T09:07:15.759Z,56.25
2017-11-24T09:08:15.794Z,61.88
2017-11-24T09:09:15.754Z,61.88
2017-11-24T09:10:15.737Z,73.13
2017-11-24T09:11:15.798Z,90.00
2017-11-24T09:12:17.537Z,118.13
2017-11-24T09:13:15.657Z,146.25
2017-11-24T09:14:15.607Z,174.38
2017-11-24T09:15:15.665Z,146.25
2017-11-24T09:16:15.616Z,112.50
2017-11-24T09:17:15.576Z,118.13
2017-11-24T09:18:15.553Z,106.88
2017-11-24T09:19:15.591Z,112.50
2017-11-24T09:20:15.473Z,112.50
2017-11-24T09:21:15.413Z,90.00
2017-11-24T09:22:15.453Z,73.13
2017-11-24T09:23:15.394Z,84.38
2017-11-24T09:24:15.373Z,84.38
2017-11-24T09:25:15.456Z,84.38
2017-11-24T09:26:15.397Z,95.63
2017-11-24T09:27:15.313Z,129.38
2017-11-24T09:28:15.493Z,163.13
2017-11-24T09:29:15.308Z,196.88
2017-11-24T09:30:15.402Z,225.00
2017-11-24T09:31:19.839Z,225.00
2017-11-24T09:32:15.323Z,213.75
2017-11-24T09:33:15.351Z,196.88
2017-11-24T09:34:19.037Z,202.50
2017-11-24T09:35:15.189Z,191.25
2017-11-24T09:36:15.183Z,180.00
2017-11-24T09:37:15.190Z,163.13
2017-11-24T09:38:15.110Z,157.50
2017-11-24T09:39:15.117Z,146.25
2017-11-24T09:40:15.032Z,157.50
2017-11-24T09:41:15.082Z,146.25
2017-11-24T09:42:15.105Z,163.13
2017-11-24T09:43:15.052Z,196.88
2017-11-24T09:44:15.030Z,163.13
2017-11-24T09:45:14.959Z,106.88
2017-11-24T09:46:14.999Z,67.50
2017-11-24T09:47:14.893Z,56.25
2017-11-24T09:48:14.871Z,61.88
2017-11-24T09:49:14.884Z,56.25
2017-11-24T09:50:14.988Z,61.88
2017-11-24T09:51:14.816Z,67.50
2017-11-24T09:52:14.953Z,90.00
2017-11-24T09:53:14.898Z,78.75
2017-11-24T09:54:14.969Z,73.13
2017-11-24T09:55:17.382Z,73.13
2017-11-24T09:56:14.772Z,90.00
2017-11-24T09:57:14.769Z,123.75
2017-11-24T09:58:14.711Z,123.75
2017-11-24T09:59:14.783Z,118.13
2017-11-24T10:00:14.819Z,112.50
2017-11-24T10:01:14.690Z,112.50
2017-11-24T10:02:14.623Z,106.88
2017-11-24T10:03:14.671Z,101.25
2017-11-24T10:04:14.599Z,106.88
2017-11-24T10:05:14.606Z,118.13
2017-11-24T10:06:14.569Z,123.75
2017-11-24T10:07:14.496Z,106.88
2017-11-24T10:08:14.541Z,90.00
2017-11-24T10:09:14.549Z,73.13
2017-11-24T10:10:14.473Z,61.88
2017-11-24T10:11:14.577Z,56.25
2017-11-24T10:12:14.485Z,56.25
2017-11-24T10:13:14.424Z,50.63
2017-11-24T10:14:14.412Z,50.63
2017-11-24T10:15:14.384Z,50.63
2017-11-24T10:16:14.436Z,39.38
2017-11-24T10:17:14.354Z,39.38
2017-11-24T10:18:14.417Z,33.75
2017-11-24T10:19:14.346Z,33.75
2017-11-24T10:20:14.274Z,33.75
2017-11-24T10:21:14.370Z,39.38
2017-11-24T10:22:17.854Z,45.00
2017-11-24T10:23:14.202Z,39.38
2017-11-24T10:24:14.184Z,39.38
2017-11-24T10:25:14.786Z,39.38
2017-11-24T10:26:14.135Z,39.38
2017-11-24T10:27:14.096Z,39.38
2017-11-24T10:28:14.147Z,39.38
2017-11-24T10:29:14.078Z,39.38
2017-11-24T10:30:14.036Z,33.75
2017-11-24T10:31:14.081Z,33.75
2017-11-24T10:32:14.043Z,33.75
2017-11-24T10:33:14.031Z,39.38
2017-11-24T10:34:13.991Z,39.38
2017-11-24T10:35:13.987Z,33.75
2017-11-24T10:36:13.972Z,33.75
2017-11-24T10:37:13.972Z,33.75
2017-11-24T10:38:13.937Z,39.38
2017-11-24T10:39:13.881Z,45.00
2017-11-24T10:40:13.858Z,50.63
2017-11-24T10:41:13.830Z,50.63
2017-11-24T10:42:13.823Z,50.63
2017-11-24T10:43:13.820Z,56.25
2017-11-24T10:44:13.783Z,73.13
2017-11-24T10:45:13.775Z,84.38
2017-11-24T10:46:13.802Z,90.00
2017-11-24T10:47:13.714Z,95.63
2017-11-24T10:48:13.709Z,123.75
2017-11-24T10:49:13.695Z,123.75
2017-11-24T10:50:13.652Z,123.75
2017-11-24T10:51:13.692Z,106.88
2017-11-24T10:52:13.631Z,95.63
2017-11-24T10:53:13.637Z,101.25
2017-11-24T10:54:17.391Z,129.38
2017-11-24T10:55:13.618Z,135.00
2017-11-24T10:56:13.558Z,112.50
2017-11-24T10:57:16.429Z,84.38
2017-11-24T10:58:13.560Z,78.75
2017-11-24T10:59:13.513Z,95.63
2017-11-24T11:00:13.480Z,123.75
2017-11-24T11:01:13.466Z,123.75
2017-11-24T11:02:13.481Z,123.75
2017-11-24T11:03:13.410Z,135.00
2017-11-24T11:04:13.389Z,118.13
2017-11-24T11:05:13.393Z,112.50
2017-11-24T11:06:13.339Z,123.75
2017-11-24T11:07:13.384Z,118.13
2017-11-24T11:08:13.339Z,129.38
2017-11-24T11:09:13.321Z,180.00
2017-11-24T11:10:13.281Z,230.63
2017-11-24T11:11:13.275Z,247.50
2017-11-24T11:12:13.266Z,264.38
2017-11-24T11:13:13.232Z,258.75
2017-11-24T11:14:13.248Z,264.38
2017-11-24T11:15:15.841Z,264.38
2017-11-24T11:16:13.173Z,258.75
2017-11-24T11:17:13.144Z,241.88
2017-11-24T11:18:13.125Z,185.63
2017-11-24T11:19:13.093Z,163.13
2017-11-24T11:20:13.130Z,163.13
2017-11-24T11:21:13.054Z,157.50
2017-11-24T11:22:13.081Z,140.63
2017-11-24T11:23:13.085Z,146.25
2017-11-24T11:24:13.064Z,151.88
2017-11-24T11:25:13.002Z,146.25
2017-11-24T11:26:12.959Z,118.13
2017-11-24T11:27:13.014Z,123.75
2017-11-24T11:28:12.975Z,101.25
2017-11-24T11:29:12.961Z,95.63
2017-11-24T11:30:12.942Z,112.50
2017-11-24T11:31:12.915Z,101.25
2017-11-24T11:32:12.883Z,95.63
2017-11-24T11:33:12.886Z,95.63
2017-11-24T11:34:12.814Z,95.63
2017-11-24T11:35:12.889Z,106.88
2017-11-24T11:36:12.780Z,106.88
2017-11-24T11:37:12.816Z,95.63
2017-11-24T11:38:12.796Z,90.00
2017-11-24T11:39:15.393Z,84.38
2017-11-24T11:40:12.751Z,101.25
2017-11-24T11:41:12.718Z,118.13
2017-11-24T11:42:12.679Z,129.38
2017-11-24T11:43:12.646Z,123.75
2017-11-24T11:44:12.664Z,123.75
2017-11-24T11:45:12.678Z,118.13
2017-11-24T11:46:12.648Z,118.13
2017-11-24T11:47:12.617Z,129.38
2017-11-24T11:48:12.550Z,151.88
2017-11-24T11:49:12.559Z,196.88
2017-11-24T11:50:12.525Z,247.50
2017-11-24T11:51:12.491Z,371.25
2017-11-24T11:52:12.497Z,399.38
2017-11-24T11:53:12.459Z,309.38
2017-11-24T11:54:12.436Z,225.00
2017-11-24T11:55:12.437Z,168.75
2017-11-24T11:56:12.449Z,163.13
2017-11-24T11:57:12.453Z,140.63
2017-11-24T11:58:12.361Z,118.13
2017-11-24T11:59:12.382Z,123.75
2017-11-24T12:00:12.372Z,118.13
2017-11-24T12:01:12.323Z,95.63
2017-11-24T12:02:12.364Z,90.00
2017-11-24T12:03:12.295Z,101.25
2017-11-24T12:04:12.253Z,95.63
2017-11-24T12:05:12.255Z,95.63
2017-11-24T12:06:12.242Z,101.25
2017-11-24T12:07:12.208Z,112.50
2017-11-24T12:08:12.261Z,95.63
2017-11-24T12:09:12.234Z,95.63
2017-11-24T12:10:12.153Z,84.38
2017-11-24T12:11:12.196Z,61.88
2017-11-24T12:12:12.151Z,45.00
2017-11-24T12:13:12.120Z,33.75
2017-11-24T12:14:12.099Z,28.13
2017-11-24T12:15:12.044Z,33.75
2017-11-24T12:16:12.073Z,33.75
2017-11-24T12:17:12.047Z,33.75
2017-11-24T12:18:11.983Z,39.38
2017-11-24T12:19:11.963Z,39.38
2017-11-24T12:20:11.985Z,45.00
2017-11-24T12:21:11.947Z,45.00
2017-11-24T12:22:11.966Z,45.00
2017-11-24T12:23:11.931Z,50.63
2017-11-24T12:24:11.889Z,50.63
2017-11-24T12:25:11.947Z,45.00
2017-11-24T12:26:11.917Z,45.00
2017-11-24T12:27:11.951Z,39.38
2017-11-24T12:28:11.849Z,33.75
2017-11-24T12:29:11.817Z,39.38
2017-11-24T12:30:11.768Z,50.63
2017-11-24T12:31:14.689Z,50.63
2017-11-24T12:32:11.738Z,45.00
2017-11-24T12:33:11.813Z,39.38
2017-11-24T12:34:16.568Z,33.75
2017-11-24T12:35:11.826Z,45.00
2017-11-24T12:36:11.670Z,39.38
2017-11-24T12:37:11.672Z,33.75
2017-11-24T12:38:11.664Z,45.00
2017-11-24T12:39:11.797Z,50.63
2017-11-24T12:40:11.767Z,50.63
2017-11-24T12:41:11.652Z,56.25
2017-11-24T12:42:14.431Z,61.88
2017-11-24T12:43:11.692Z,61.88
2017-11-24T12:44:11.592Z,50.63
2017-11-24T12:45:11.538Z,39.38
2017-11-24T12:46:11.451Z,45.00
2017-11-24T12:47:12.554Z,56.25
2017-11-24T12:48:11.504Z,67.50
2017-11-24T12:49:11.444Z,73.13
2017-11-24T12:50:11.437Z,67.50
2017-11-24T12:51:17.379Z,61.88
2017-11-24T12:52:14.483Z,39.38
2017-11-24T12:53:11.452Z,28.13
2017-11-24T12:54:11.511Z,28.13
2017-11-24T12:55:11.373Z,33.75
2017-11-24T12:56:11.262Z,33.75
2017-11-24T12:57:11.363Z,33.75
2017-11-24T12:58:11.239Z,28.13
2017-11-24T12:59:11.319Z,28.13
2017-11-24T13:00:12.905Z,33.75
2017-11-24T13:01:11.203Z,33.75
2017-11-24T13:02:11.209Z,39.38